Time;durP1;ratioP1;P1;durP2;ratioP2;P2;SDS_P1;SDS_P2;PMS_P1;PMS_P2;Temp;Humidity;BMP_temperature;BMP_pressure;BME280_temperature;BME280_humidity;BME280_pressure;Samples;Min_cycle;Max_cycle;Signal;HPM_P1;HPM_P2
2022/02/02 00:08:46;;;;;;;29.67;11.98;;;4.10;99.90;;;;;;6274942;22;20431;-90
2022/02/02 00:12:09;;;;;;;17.52;8.30;;;4.30;99.90;;;;;;6253150;22;20382;-89
2022/02/02 00:18:04;;;;;;;13.32;6.55;;;4.60;99.90;;;;;;6274543;22;20426;-89
2022/02/02 00:21:03;;;;;;;8.10;5.10;;;4.70;99.90;;;;;;6274865;22;20024;-90
2022/02/02 00:24:02;;;;;;;8.43;5.60;;;4.80;99.90;;;;;;6259504;22;20456;-90
2022/02/02 00:26:58;;;;;;;8.02;4.60;;;4.80;99.90;;;;;;6269392;22;20032;-88
2022/02/02 00:29:53;;;;;;;8.35;4.43;;;4.90;99.90;;;;;;6255852;22;20047;-90
2022/02/02 00:35:35;;;;;;;8.02;4.95;;;5.00;99.90;;;;;;6283565;22;20081;-89
2022/02/02 00:38:22;;;;;;;11.52;4.30;;;4.90;99.90;;;;;;6262676;22;20035;-89
2022/02/02 00:41:12;;;;;;;12.52;5.00;;;4.90;99.90;;;;;;6289664;22;20019;-89
2022/02/02 00:44:00;;;;;;;8.02;4.60;;;4.90;99.90;;;;;;6269823;22;20027;-90
2022/02/02 00:46:48;;;;;;;12.52;6.00;;;4.90;99.90;;;;;;6254174;22;20031;-89
2022/02/02 00:49:36;;;;;;;12.38;6.72;;;4.90;99.90;;;;;;6255756;22;20169;-90
2022/02/02 00:52:23;;;;;;;11.65;7.35;;;5.00;99.90;;;;;;6276602;22;20403;-89
2022/02/02 00:55:11;;;;;;;14.43;7.45;;;5.00;99.90;;;;;;6273741;22;20390;-89
2022/02/02 00:57:58;;;;;;;12.65;5.13;;;5.10;99.90;;;;;;6253293;22;20123;-90
2022/02/02 01:00:48;;;;;;;13.82;4.45;;;5.10;99.90;;;;;;6275015;22;20019;-89
2022/02/02 01:03:35;;;;;;;7.15;3.65;;;5.20;99.90;;;;;;6276794;22;20344;-89
2022/02/02 01:06:24;;;;;;;7.32;2.58;;;5.20;99.90;;;;;;6276325;22;20104;-89
2022/02/02 01:22:19;;;;;;;3.42;1.58;;;5.20;99.90;;;;;;6275840;22;20047;-88
2022/02/02 01:27:50;;;;;;;5.55;1.70;;;5.30;99.90;;;;;;6274269;22;20101;-90
2022/02/02 01:30:38;;;;;;;4.28;2.08;;;5.20;99.90;;;;;;6253770;22;20096;-89
2022/02/02 01:33:25;;;;;;;4.78;1.90;;;5.10;99.90;;;;;;6274901;22;20020;-90
2022/02/02 01:36:15;;;;;;;7.57;2.22;;;5.10;99.90;;;;;;6251547;22;20102;-89
2022/02/02 01:39:05;;;;;;;8.48;2.70;;;5.10;99.90;;;;;;6251373;22;20035;-90
2022/02/02 01:41:53;;;;;;;8.70;3.33;;;5.10;99.90;;;;;;6274508;22;20102;-89
2022/02/02 01:44:48;;;;;;;9.65;3.42;;;5.10;99.90;;;;;;6273971;22;20357;-90
2022/02/02 01:47:54;;;;;;;11.23;4.28;;;5.00;99.90;;;;;;6272698;22;20089;-90
2022/02/02 01:56:39;;;;;;;10.65;4.78;;;5.00;99.90;;;;;;6272622;22;20316;-89
2022/02/02 01:59:39;;;;;;;12.63;4.78;;;5.00;99.90;;;;;;6271699;22;20368;-90
2022/02/02 02:02:28;;;;;;;17.33;5.65;;;5.00;99.90;;;;;;6273930;22;20023;-88
2022/02/02 02:05:16;;;;;;;12.05;4.50;;;5.00;99.90;;;;;;6272960;22;20404;-91
2022/02/02 02:08:03;;;;;;;13.68;5.35;;;5.00;99.90;;;;;;6250863;22;20097;-90
2022/02/02 02:10:50;;;;;;;7.85;4.63;;;5.00;99.90;;;;;;6272742;22;20039;-90
2022/02/02 02:16:42;;;;;;;21.83;6.82;;;5.10;99.90;;;;;;6275882;22;20023;-91
2022/02/02 02:19:29;;;;;;;13.90;5.25;;;5.20;99.90;;;;;;6276063;22;20104;-90
2022/02/02 02:22:33;;;;;;;15.85;5.55;;;5.30;99.90;;;;;;6274823;22;20093;-91
2022/02/02 02:25:23;;;;;;;11.77;5.38;;;5.30;99.90;;;;;;6253744;22;20318;-90
2022/02/02 02:28:41;;;;;;;14.75;5.88;;;5.40;99.90;;;;;;6277746;22;20113;-90
2022/02/02 02:31:46;;;;;;;15.82;5.32;;;5.40;99.90;;;;;;6255184;22;20078;-90
2022/02/02 02:56:39;;;;;;;19.48;5.90;;;5.20;99.90;;;;;;6273921;22;20472;-89
2022/02/02 02:59:43;;;;;;;22.27;6.53;;;5.20;99.90;;;;;;6274506;22;20031;-89
2022/02/02 03:03:14;;;;;;;24.13;6.20;;;5.10;99.90;;;;;;6277434;22;20024;-90
2022/02/02 03:49:35;;;;;;;20.08;4.55;;;5.10;99.90;;;;;;6277513;22;20028;-90
2022/02/02 03:55:41;;;;;;;16.15;4.40;;;5.10;99.90;;;;;;6274028;22;20085;-91
2022/02/02 03:58:30;;;;;;;14.63;3.60;;;5.10;99.90;;;;;;6273946;22;20024;-90
2022/02/02 04:01:47;;;;;;;21.95;4.95;;;5.10;99.90;;;;;;6274807;22;20417;-90
2022/02/02 04:04:49;;;;;;;15.20;3.65;;;5.10;99.90;;;;;;6274462;22;20154;-90
2022/02/02 04:08:06;;;;;;;12.98;3.53;;;5.10;99.90;;;;;;6253128;22;20035;-90
2022/02/02 04:10:59;;;;;;;13.75;3.55;;;5.00;99.90;;;;;;6275557;22;20094;-90
2022/02/02 05:03:53;;;;;;;16.60;3.97;;;4.70;99.90;;;;;;6275748;22;20069;-90
2022/02/02 05:09:23;;;;;;;16.50;3.67;;;4.60;99.90;;;;;;6273064;22;20149;-89
2022/02/02 05:12:57;;;;;;;18.63;4.22;;;4.60;99.90;;;;;;6271636;22;20309;-91
2022/02/02 05:28:46;;;;;;;22.00;5.05;;;4.60;99.90;;;;;;6273534;22;20091;-90
2022/02/02 06:12:53;;;;;;;15.55;4.10;;;5.00;99.90;;;;;;6277793;22;20058;-90
2022/02/02 06:15:42;;;;;;;20.60;4.95;;;5.00;99.90;;;;;;6260033;22;20035;-90
2022/02/02 06:18:35;;;;;;;15.65;3.92;;;5.00;99.90;;;;;;6256021;22;20085;-90
2022/02/02 06:21:30;;;;;;;;;;;5.10;99.90;;;;;;6277071;22;20030;-88
2022/02/02 06:28:35;;;;;;;24.77;4.97;;;5.10;99.90;;;;;;6275730;22;20407;-88
2022/02/02 06:31:25;;;;;;;27.13;4.32;;;5.10;99.90;;;;;;6257114;22;20031;-89
2022/02/02 06:38:29;;;;;;;;;;;;;;;;;;;;;
2022/02/02 06:41:19;;;;;;;21.70;4.78;;;5.00;99.90;;;;;;6277216;22;20098;-91
2022/02/02 07:54:23;;;;;;;18.02;3.92;;;5.60;99.90;;;;;;6289090;22;20019;-89
2022/02/02 08:05:34;;;;;;;;;;;;;;;;;;;;;
2022/02/02 08:08:52;;;;;;;27.85;4.57;;;5.70;99.90;;;;;;6281019;22;20020;-91
2022/02/02 08:11:58;;;;;;;;;;;;;;;;;;;;;
2022/02/02 08:19:21;;;;;;;24.33;4.45;;;5.80;99.90;;;;;;6151123;23;20021;-89
2022/02/02 08:22:39;;;;;;;22.30;5.47;;;5.80;99.90;;;;;;6083601;23;20108;-90
2022/02/02 08:29:09;;;;;;;19.48;4.75;;;5.70;99.90;;;;;;6150412;23;20033;-91
2022/02/02 08:32:01;;;;;;;14.02;3.42;;;5.70;99.90;;;;;;6132529;23;20026;-91
2022/02/02 08:35:20;;;;;;;13.73;3.53;;;5.70;99.90;;;;;;6130175;23;20108;-90
2022/02/02 08:43:02;;;;;;;14.93;3.83;;;5.70;99.90;;;;;;6046254;23;20390;-89
2022/02/02 09:59:56;;;;;;;28.67;4.85;;;7.10;99.90;;;;;;6062614;23;20010;-88
2022/02/02 11:44:23;;;;;;;17.75;3.80;;;15.00;67.60;;;;;;6093173;23;20755;-89
2022/02/02 11:51:12;;;;;;;19.65;4.75;;;13.40;76.00;;;;;;6091223;23;20433;-90
2022/02/02 11:54:52;;;;;;;18.10;3.90;;;14.80;71.50;;;;;;6081128;23;20037;-90
2022/02/02 11:59:12;;;;;;;18.35;3.92;;;14.30;68.60;;;;;;6094860;23;20326;-90
2022/02/02 12:54:15;;;;;;;17.88;4.60;;;8.40;99.90;;;;;;6229195;23;20074;-88
2022/02/02 12:57:03;;;;;;;16.30;3.78;;;8.40;99.90;;;;;;6255028;23;20024;-86
2022/02/02 13:00:07;;;;;;;20.60;5.78;;;8.40;99.90;;;;;;6244902;23;20077;-89
2022/02/02 13:02:59;;;;;;;18.25;4.80;;;8.50;99.90;;;;;;6251810;23;20028;-90
2022/02/02 13:05:49;;;;;;;17.20;5.15;;;8.40;99.90;;;;;;6258163;23;20148;-89
2022/02/02 13:08:56;;;;;;;26.20;6.50;;;8.40;99.90;;;;;;6232181;23;20028;-89
2022/02/02 13:12:00;;;;;;;15.15;4.70;;;8.70;99.90;;;;;;6236581;23;20024;-87
2022/02/02 13:19:55;;;;;;;17.08;3.92;;;9.50;99.90;;;;;;6096866;23;20014;-90
2022/02/02 13:27:15;;;;;;;15.02;3.97;;;9.60;99.90;;;;;;6212044;23;20028;-90
2022/02/02 13:50:13;;;;;;;20.85;4.05;;;8.70;99.90;;;;;;6037120;23;20162;-87
2022/02/02 14:00:19;;;;;;;13.82;3.47;;;8.60;99.90;;;;;;6245974;23;20317;-88
2022/02/02 16:12:45;;;;;;;7.22;2.65;;;5.90;99.90;;;;;;5084969;27;20799;-90
2022/02/02 16:15:42;;;;;;;5.70;3.17;;;5.90;99.90;;;;;;5064310;28;20060;-90
2022/02/02 20:43:23;;;;;;;;;;;;;;;;;;;;;
2022/02/02 21:32:59;;;;;;;32.92;20.48;;;5.20;99.90;;;;;;4915501;29;20059;-88
2022/02/02 21:36:22;;;;;;;;;;;;;;;;;;;;;
2022/02/02 21:40:02;;;;;;;;;;;;;;;;;;;;;
2022/02/02 21:59:53;;;;;;;;;;;;;;;;;;;;;
2022/02/02 22:03:29;;;;;;;43.90;26.17;;;5.20;99.90;;;;;;4787935;29;20221;-90
2022/02/02 22:06:37;;;;;;;38.20;24.42;;;5.20;99.90;;;;;;4751468;30;20478;-89
2022/02/02 22:09:37;;;;;;;41.22;24.30;;;5.20;99.90;;;;;;4751541;30;20098;-90
2022/02/02 22:12:55;;;;;;;39.20;25.13;;;5.20;99.90;;;;;;4847685;29;20077;-91
2022/02/02 22:17:24;;;;;;;;;;;;;;;;;;;;;
2022/02/02 22:20:05;;;;;;;43.63;24.55;;;5.20;99.90;;;;;;4843063;29;20045;-88
2022/02/02 22:23:47;;;;;;;;;;;;;;;;;;;;;
2022/02/02 22:39:06;;;;;;;;;;;;;;;;;;;;;
2022/02/02 22:46:26;;;;;;;;;;;;;;;;;;;;;
2022/02/02 22:50:09;;;;;;;;;;;;;;;;;;;;;
2022/02/02 22:53:33;;;;;;;;;;;;;;;;;;;;;
2022/02/02 22:56:45;;;;;;;;;;;;;;;;;;;;;
2022/02/02 23:00:15;;;;;;;43.83;25.70;;;5.10;99.90;;;;;;4946292;28;20063;-91
2022/02/02 23:04:25;;;;;;;;;;;;;;;;;;;;;
2022/02/02 23:08:00;;;;;;;;;;;;;;;;;;;;;
2022/02/02 23:11:16;;;;;;;39.03;24.08;;;5.10;99.90;;;;;;4933255;29;20365;-91
2022/02/02 23:14:15;;;;;;;;;;;;;;;;;;;;;
2022/02/02 23:17:31;;;;;;;41.97;24.92;;;5.10;99.90;;;;;;4873518;29;20466;-92
2022/02/02 23:20:33;;;;;;;43.35;25.30;;;5.10;99.90;;;;;;4889572;29;20064;-90
2022/02/02 23:23:50;;;;;;;49.00;28.63;;;5.10;99.90;;;;;;4894230;29;20093;-91
2022/02/02 23:27:12;;;;;;;40.05;24.98;;;5.10;99.90;;;;;;4982028;28;20045;-91
2022/02/02 23:30:14;;;;;;;44.45;26.98;;;5.20;99.90;;;;;;5040774;28;20127;-89
2022/02/02 23:33:11;;;;;;;40.97;24.42;;;5.20;99.90;;;;;;5027484;28;20045;-91
2022/02/02 23:36:10;;;;;;;39.30;24.58;;;5.30;99.90;;;;;;5105346;27;20382;-88
2022/02/02 23:38:57;;;;;;;43.22;24.52;;;5.30;99.90;;;;;;5124030;27;20051;-89
2022/02/02 23:44:49;;;;;;;41.92;24.00;;;5.30;99.90;;;;;;5126940;27;20046;-89
2022/02/02 23:47:46;;;;;;;42.55;25.25;;;5.40;99.90;;;;;;5118843;27;20580;-89
2022/02/02 23:50:34;;;;;;;42.78;23.67;;;5.40;99.90;;;;;;5115522;27;20070;-87
2022/02/02 23:53:22;;;;;;;40.22;24.05;;;5.40;99.90;;;;;;5117444;27;20035;-89
2022/02/02 23:56:22;;;;;;;47.15;26.17;;;5.40;99.90;;;;;;5132232;27;20039;-87
2022/02/02 23:59:26;;;;;;;44.65;25.48;;;5.40;99.90;;;;;;5116445;27;20046;-88
